createdAt,value
2022-09-15T00:02:35.000Z,13.64
2022-09-15T00:07:34.000Z,13.64
2022-09-15T00:12:34.000Z,13.15
2022-09-15T00:17:35.000Z,13.26
2022-09-15T00:22:35.000Z,12.65
2022-09-15T00:27:34.000Z,12.71
2022-09-15T00:37:34.000Z,11.75
2022-09-15T00:42:35.000Z,11.17
2022-09-15T00:47:35.000Z,11.21
2022-09-15T00:52:35.000Z,11.17
2022-09-15T00:57:34.000Z,11.01
2022-09-15T01:02:35.000Z,10.53
2022-09-15T01:07:34.000Z,10.58
2022-09-15T01:12:34.000Z,10.58
2022-09-15T01:17:35.000Z,10.65
2022-09-15T01:27:52.000Z,11.57
2022-09-15T01:32:35.000Z,10.84
2022-09-15T01:37:34.000Z,11.12
2022-09-15T01:42:35.000Z,11.23
2022-09-15T01:47:34.000Z,11.43
2022-09-15T01:52:35.000Z,11.63
2022-09-15T01:57:34.000Z,12.03
2022-09-15T02:02:34.000Z,12.8
2022-09-15T02:07:34.000Z,11.72
2022-09-15T02:12:34.000Z,11.72
2022-09-15T02:17:35.000Z,12.58
2022-09-15T02:22:35.000Z,11.79
2022-09-15T02:27:35.000Z,10.67
2022-09-15T02:32:35.000Z,11.54
2022-09-15T02:37:34.000Z,11.01
2022-09-15T02:42:35.000Z,10.82
2022-09-15T02:47:35.000Z,10.54
2022-09-15T02:52:34.000Z,10.53
2022-09-15T02:57:34.000Z,10.75
2022-09-15T03:02:35.000Z,9.8
2022-09-15T03:07:34.000Z,9.41
2022-09-15T03:12:35.000Z,8.61
2022-09-15T03:17:35.000Z,8.92
2022-09-15T03:22:35.000Z,7.71
2022-09-15T03:27:34.000Z,6.14
2022-09-15T03:32:34.000Z,6.14
2022-09-15T03:37:34.000Z,5.92
2022-09-15T03:42:34.000Z,5.08
2022-09-15T03:47:34.000Z,5.18
2022-09-15T03:52:35.000Z,6.01
2022-09-15T03:57:35.000Z,5.45
2022-09-15T04:02:35.000Z,5.26
2022-09-15T04:07:35.000Z,5
2022-09-15T04:12:35.000Z,5.16
2022-09-15T04:17:34.000Z,5.31
2022-09-15T04:22:35.000Z,5.53
2022-09-15T04:27:35.000Z,5.54
2022-09-15T04:32:34.000Z,4.81
2022-09-15T04:37:34.000Z,6.15
2022-09-15T04:42:34.000Z,7.5
2022-09-15T04:47:34.000Z,7.5
2022-09-15T04:52:34.000Z,7.8
2022-09-15T04:57:34.000Z,7.48
2022-09-15T05:02:34.000Z,8.67
2022-09-15T05:07:34.000Z,7.72
2022-09-15T05:12:34.000Z,7.39
2022-09-15T05:17:36.000Z,7.99
2022-09-15T05:22:35.000Z,7.64
2022-09-15T05:27:35.000Z,7.28
2022-09-15T05:32:35.000Z,7.96
2022-09-15T05:37:35.000Z,7.61
2022-09-15T05:42:34.000Z,8.23
2022-09-15T05:47:35.000Z,7.63
2022-09-15T05:52:35.000Z,8.64
2022-09-15T05:57:35.000Z,9.66
2022-09-15T06:02:35.000Z,9.66
2022-09-15T06:07:35.000Z,6.79
2022-09-15T06:12:34.000Z,7.16
2022-09-15T06:17:34.000Z,7.7
2022-09-15T06:22:35.000Z,9.11
2022-09-15T06:27:35.000Z,11.43
2022-09-15T06:32:35.000Z,12.13
2022-09-15T06:37:34.000Z,12.84
2022-09-15T06:42:34.000Z,12.98
2022-09-15T06:47:35.000Z,13.73
2022-09-15T06:52:35.000Z,12.47
2022-09-15T06:57:34.000Z,11.19
2022-09-15T07:02:35.000Z,10.14
2022-09-15T07:07:35.000Z,9.89
2022-09-15T07:12:35.000Z,9.89
2022-09-15T07:17:35.000Z,10.4
2022-09-15T07:22:35.000Z,9.69
2022-09-15T07:27:35.000Z,9.52
2022-09-15T07:32:35.000Z,10.17
2022-09-15T07:37:34.000Z,12.03
2022-09-15T07:42:34.000Z,11.93
2022-09-15T07:47:34.000Z,11.81
2022-09-15T07:52:35.000Z,11.35
2022-09-15T07:57:35.000Z,11.37
2022-09-15T08:02:35.000Z,11.2
2022-09-15T08:12:34.000Z,11.87
2022-09-15T08:17:34.000Z,11.76
2022-09-15T08:22:35.000Z,9.91
2022-09-15T08:27:35.000Z,8.77
2022-09-15T08:32:34.000Z,8.41
2022-09-15T08:37:35.000Z,8.31
2022-09-15T08:42:34.000Z,7.06
2022-09-15T08:47:34.000Z,6.82
2022-09-15T08:52:35.000Z,6.19
2022-09-15T08:57:35.000Z,6.18
2022-09-15T09:02:34.000Z,6.66
2022-09-15T09:07:34.000Z,6.5
2022-09-15T09:12:34.000Z,6.5
2022-09-15T09:17:35.000Z,5.9
2022-09-15T09:22:35.000Z,6.05
2022-09-15T09:27:35.000Z,5.58
2022-09-15T09:32:35.000Z,5.82
2022-09-15T09:37:35.000Z,5.04
2022-09-15T09:42:35.000Z,5.48
2022-09-15T09:47:35.000Z,6.16
2022-09-15T09:52:35.000Z,6.24
2022-09-15T09:57:35.000Z,6.86
2022-09-15T10:07:34.000Z,9.04
2022-09-15T10:12:35.000Z,10.3
2022-09-15T10:17:35.000Z,10.3
2022-09-15T10:22:34.000Z,12.99
2022-09-15T10:27:35.000Z,12.39
2022-09-15T10:32:35.000Z,12.6
2022-09-15T10:37:35.000Z,11.32
2022-09-15T10:42:35.000Z,11.48
2022-09-15T10:47:34.000Z,11.97
2022-09-15T10:52:34.000Z,12.92
2022-09-15T10:57:34.000Z,14.34
2022-09-15T11:02:35.000Z,13.21
2022-09-15T11:07:34.000Z,14.48
2022-09-15T11:12:39.000Z,14.71
2022-09-15T11:17:35.000Z,15.3
2022-09-15T11:22:35.000Z,13.89
2022-09-15T11:27:35.000Z,14.81
2022-09-15T11:32:35.000Z,14.81
2022-09-15T11:37:35.000Z,14.81
2022-09-15T11:42:35.000Z,14.38
2022-09-15T11:47:35.000Z,13.9
2022-09-15T11:52:34.000Z,12.39
2022-09-15T11:57:34.000Z,13.39
2022-09-15T12:02:35.000Z,12.3
2022-09-15T12:07:34.000Z,11.4
2022-09-15T12:12:40.000Z,10.83
2022-09-15T12:17:34.000Z,10.84
2022-09-15T12:22:35.000Z,9.71
2022-09-15T12:27:35.000Z,10.93
2022-09-15T12:32:35.000Z,14.72
2022-09-15T12:37:35.000Z,14.44
2022-09-15T12:42:35.000Z,13.72
2022-09-15T12:47:35.000Z,13.72
2022-09-15T12:52:35.000Z,11.05
2022-09-15T12:57:35.000Z,12.57
2022-09-15T13:02:35.000Z,12.5
2022-09-15T13:07:35.000Z,13.13
2022-09-15T13:12:34.000Z,11.31
2022-09-15T13:17:34.000Z,9.67
2022-09-15T13:22:34.000Z,9.23
2022-09-15T13:27:34.000Z,11.15
2022-09-15T13:32:35.000Z,11.47
2022-09-15T13:38:05.000Z,12.31
2022-09-15T13:42:35.000Z,12.86
2022-09-15T13:47:34.000Z,9.87
2022-09-15T13:52:34.000Z,8.51
2022-09-15T13:59:07.000Z,9.14
2022-09-15T14:07:35.000Z,10.18
2022-09-15T14:12:35.000Z,9.92
2022-09-15T14:22:35.000Z,10.28
2022-09-15T14:27:35.000Z,10.55
2022-09-15T14:32:35.000Z,10.55
2022-09-15T14:37:34.000Z,11.31
2022-09-15T14:42:35.000Z,11.23
2022-09-15T14:47:34.000Z,11
2022-09-15T14:52:34.000Z,11.16
2022-09-15T14:57:40.000Z,11.66
2022-09-15T15:02:35.000Z,12.06
2022-09-15T15:07:34.000Z,12.79
2022-09-15T15:12:34.000Z,12.35
2022-09-15T15:17:35.000Z,12.76
2022-09-15T15:22:34.000Z,18.47
2022-09-15T15:27:34.000Z,17.48
2022-09-15T15:32:35.000Z,13.56
2022-09-15T15:37:35.000Z,9.92
2022-09-15T15:42:35.000Z,9.96
2022-09-15T15:47:35.000Z,9.96
2022-09-15T15:52:35.000Z,9.23
2022-09-15T16:02:35.000Z,8.94
2022-09-15T16:07:38.000Z,8.48
2022-09-15T16:12:35.000Z,7.92
2022-09-15T16:17:34.000Z,8.18
2022-09-15T16:22:35.000Z,8.94
2022-09-15T16:27:34.000Z,9.25
2022-09-15T16:32:35.000Z,9.02
2022-09-15T16:37:34.000Z,9.02
2022-09-15T16:42:34.000Z,9.45
2022-09-15T16:47:34.000Z,9.51
2022-09-15T16:52:35.000Z,11.2
2022-09-15T16:57:35.000Z,9.7
2022-09-15T17:02:35.000Z,9.86
2022-09-15T17:07:35.000Z,9.78
2022-09-15T17:12:34.000Z,10.94
2022-09-15T17:22:34.000Z,12.18
2022-09-15T17:27:35.000Z,12.7
2022-09-15T17:32:35.000Z,14.76
2022-09-15T17:37:34.000Z,15.42
2022-09-15T17:42:35.000Z,16.27
2022-09-15T17:47:35.000Z,16.56
2022-09-15T17:52:35.000Z,17.31
2022-09-15T17:57:34.000Z,16.37
2022-09-15T18:02:34.000Z,16.97
2022-09-15T18:07:34.000Z,19.82
2022-09-15T18:12:34.000Z,16.18
2022-09-15T18:17:35.000Z,16.18
2022-09-15T18:22:35.000Z,17.54
2022-09-15T18:27:35.000Z,17.48
2022-09-15T18:32:35.000Z,17.5
2022-09-15T18:37:35.000Z,17.33
2022-09-15T18:42:39.000Z,17.46
2022-09-15T18:47:34.000Z,16.25
2022-09-15T18:52:35.000Z,16.71
2022-09-15T18:57:35.000Z,16.05
2022-09-15T19:02:35.000Z,16.71
2022-09-15T19:07:38.000Z,18.64
2022-09-15T19:12:34.000Z,16.48
2022-09-15T19:17:35.000Z,15.59
2022-09-15T19:22:34.000Z,15.34
2022-09-15T19:27:35.000Z,16.98
2022-09-15T19:32:35.000Z,16.98
2022-09-15T19:37:35.000Z,16.32
2022-09-15T19:42:35.000Z,16.89
2022-09-15T19:47:34.000Z,17.37
2022-09-15T19:52:34.000Z,16.84
2022-09-15T19:57:34.000Z,16.55
2022-09-15T20:02:35.000Z,15.89
2022-09-15T20:07:34.000Z,16.13
2022-09-15T20:12:35.000Z,15.25
2022-09-15T20:17:34.000Z,15.67
2022-09-15T20:22:34.000Z,16.03
2022-09-15T20:27:34.000Z,14.68
2022-09-15T20:32:38.000Z,14.93
2022-09-15T20:37:35.000Z,14.44
2022-09-15T20:42:35.000Z,14.85
2022-09-15T20:47:35.000Z,14.85
2022-09-15T20:52:39.000Z,14.52
2022-09-15T20:57:34.000Z,13.92
2022-09-15T21:02:35.000Z,14.37
2022-09-15T21:07:34.000Z,13.99
2022-09-15T21:12:34.000Z,13.54
2022-09-15T21:17:35.000Z,13.94
2022-09-15T21:22:35.000Z,15.46
2022-09-15T21:27:35.000Z,45.38
2022-09-15T21:32:35.000Z,57.79
2022-09-15T21:37:35.000Z,46.54
2022-09-15T21:42:34.000Z,39.98
2022-09-15T21:47:35.000Z,40.95
2022-09-15T21:52:34.000Z,41.02
2022-09-15T21:57:35.000Z,41.02
2022-09-15T22:02:35.000Z,47.67
2022-09-15T22:07:34.000Z,51.47
2022-09-15T22:12:34.000Z,48.8
2022-09-15T22:17:35.000Z,44.58
2022-09-15T22:22:35.000Z,46.82
2022-09-15T22:27:35.000Z,46.35
2022-09-15T22:32:35.000Z,44.84
2022-09-15T22:37:34.000Z,44.94
2022-09-15T22:42:34.000Z,47.83
2022-09-15T22:47:35.000Z,51.85
2022-09-15T22:52:35.000Z,54.37
2022-09-15T22:57:35.000Z,59.32
2022-09-15T23:02:35.000Z,77.9
2022-09-15T23:07:34.000Z,72.45
2022-09-15T23:12:35.000Z,72.45
2022-09-15T23:17:35.000Z,68.57
2022-09-15T23:22:34.000Z,62.6
2022-09-15T23:27:34.000Z,56.88
2022-09-15T23:32:35.000Z,48.73
2022-09-15T23:37:34.000Z,44.23
2022-09-15T23:42:34.000Z,43.29
2022-09-15T23:47:34.000Z,35.19
2022-09-15T23:52:34.000Z,34.25
